Time;durP1;ratioP1;P1;durP2;ratioP2;P2;SDS_P1;SDS_P2;PMS_P1;PMS_P2;Temp;Humidity;BMP_temperature;BMP_pressure;BME280_temperature;BME280_humidity;BME280_pressure;Samples;Min_cycle;Max_cycle;Signal;HPM_P1;HPM_P2
2022/07/21 00:01:09;;;;;;;13.95;8.10;;;19.10;99.90;;;;;;5157807;27;20362;-86
2022/07/21 00:03:35;;;;;;;16.02;8.48;;;19.10;99.90;;;;;;5157986;27;20072;-85
2022/07/21 00:06:02;;;;;;;17.02;9.20;;;19.10;99.90;;;;;;5157489;27;20494;-84
2022/07/21 00:08:27;;;;;;;14.98;8.63;;;19.10;99.90;;;;;;5140216;27;20085;-85
2022/07/21 00:10:53;;;;;;;19.45;9.10;;;19.20;99.90;;;;;;5138617;27;20081;-85
2022/07/21 00:13:19;;;;;;;17.27;10.52;;;19.10;99.90;;;;;;5158684;27;20493;-85
2022/07/21 00:15:46;;;;;;;12.07;8.88;;;19.10;99.90;;;;;;5138660;27;20576;-86
2022/07/21 00:18:12;;;;;;;16.58;9.98;;;19.10;99.90;;;;;;5139237;27;20065;-86
2022/07/21 00:20:38;;;;;;;19.02;10.13;;;19.10;99.90;;;;;;5158654;27;20119;-86
2022/07/21 00:23:04;;;;;;;22.35;9.60;;;19.10;99.90;;;;;;5139392;27;20651;-85
2022/07/21 00:25:30;;;;;;;19.90;10.27;;;19.20;99.90;;;;;;5118405;27;20050;-84
2022/07/21 00:27:56;;;;;;;22.05;10.73;;;19.20;99.90;;;;;;5135758;27;20125;-85
2022/07/21 00:30:21;;;;;;;16.42;9.88;;;19.10;99.90;;;;;;5122083;27;20086;-86
2022/07/21 00:32:47;;;;;;;15.30;9.63;;;19.20;99.90;;;;;;5138671;27;20107;-86
2022/07/21 00:35:13;;;;;;;24.60;10.07;;;19.10;99.90;;;;;;5139601;27;20042;-87
2022/07/21 00:37:40;;;;;;;18.50;10.32;;;19.10;99.90;;;;;;5137554;27;20058;-86
2022/07/21 00:40:07;;;;;;;15.80;10.75;;;19.10;99.90;;;;;;5157965;27;20050;-86
2022/07/21 00:42:33;;;;;;;14.52;9.10;;;19.10;99.90;;;;;;5138356;27;20120;-86
2022/07/21 00:44:59;;;;;;;18.15;10.77;;;19.10;99.90;;;;;;5156066;27;20042;-86
2022/07/21 00:47:28;;;;;;;19.88;10.35;;;19.10;99.90;;;;;;5157549;27;20042;-86
2022/07/21 00:49:58;;;;;;;19.60;11.82;;;19.10;99.90;;;;;;5138176;27;20042;-85
2022/07/21 00:52:25;;;;;;;18.60;11.43;;;19.00;99.90;;;;;;5117432;27;20130;-86
2022/07/21 00:54:52;;;;;;;17.55;10.52;;;19.00;99.90;;;;;;5118600;27;20082;-87
2022/07/21 00:57:17;;;;;;;12.40;9.82;;;19.00;99.90;;;;;;5137596;27;20129;-88
2022/07/21 00:59:44;;;;;;;18.15;10.43;;;19.00;99.90;;;;;;5121168;27;20125;-87
2022/07/21 01:02:12;;;;;;;13.70;10.55;;;19.00;99.90;;;;;;5156438;27;20385;-87
2022/07/21 01:04:39;;;;;;;17.77;9.75;;;19.00;99.90;;;;;;5157529;27;20042;-89
2022/07/21 01:07:05;;;;;;;15.80;10.05;;;19.00;99.90;;;;;;5136983;27;20442;-88
2022/07/21 01:09:33;;;;;;;14.43;9.90;;;19.10;99.90;;;;;;5157237;27;20116;-88
2022/07/21 01:11:59;;;;;;;16.27;10.65;;;19.10;99.90;;;;;;5137667;27;20100;-89
2022/07/21 01:14:25;;;;;;;16.95;10.50;;;19.10;99.90;;;;;;5135888;27;20047;-89
2022/07/21 01:16:52;;;;;;;18.48;10.68;;;19.00;99.90;;;;;;5138738;27;20051;-89
2022/07/21 01:19:18;;;;;;;15.90;10.88;;;19.10;99.90;;;;;;5120531;27;20497;-90
2022/07/21 01:21:46;;;;;;;14.18;10.40;;;19.10;99.90;;;;;;5120845;27;20081;-89
2022/07/21 01:24:12;;;;;;;16.60;10.85;;;19.10;99.90;;;;;;5137479;27;20106;-88
2022/07/21 01:26:50;;;;;;;18.15;10.88;;;19.00;99.90;;;;;;5156787;27;20554;-88
2022/07/21 01:29:17;;;;;;;19.92;11.63;;;19.00;99.90;;;;;;5155741;27;20043;-87
2022/07/21 01:31:45;;;;;;;24.05;11.85;;;19.00;99.90;;;;;;5156909;27;20039;-87
2022/07/21 01:34:11;;;;;;;17.05;10.82;;;19.00;99.90;;;;;;5155012;27;20042;-86
2022/07/21 01:36:38;;;;;;;20.83;12.25;;;19.00;99.90;;;;;;5138255;27;20532;-86
2022/07/21 01:41:50;;;;;;;18.33;11.90;;;19.00;99.90;;;;;;5156010;27;20100;-84
2022/07/21 01:44:16;;;;;;;21.17;12.20;;;19.00;99.90;;;;;;5155376;27;20039;-84
2022/07/21 01:46:47;;;;;;;22.48;12.50;;;19.00;99.90;;;;;;5156683;27;20103;-85
2022/07/21 01:49:15;;;;;;;21.92;13.88;;;19.00;99.90;;;;;;5154539;27;20053;-85
2022/07/21 01:51:40;;;;;;;24.92;12.93;;;19.00;99.90;;;;;;5143499;27;20103;-85
2022/07/21 01:54:08;;;;;;;25.25;12.82;;;19.00;99.90;;;;;;5145083;27;20050;-85
2022/07/21 01:56:35;;;;;;;24.67;14.30;;;19.00;99.90;;;;;;5155632;27;20057;-86
2022/07/21 01:59:01;;;;;;;31.95;14.73;;;19.00;99.90;;;;;;5146179;27;20043;-87
2022/07/21 02:01:28;;;;;;;17.27;11.60;;;19.00;99.90;;;;;;5117235;27;20504;-87
2022/07/21 02:03:56;;;;;;;27.58;14.48;;;19.00;99.90;;;;;;5143257;27;20180;-86
2022/07/21 02:06:22;;;;;;;22.27;12.77;;;19.00;99.90;;;;;;5156128;27;20538;-86
2022/07/21 02:08:48;;;;;;;22.67;14.20;;;19.00;99.90;;;;;;5155088;27;20042;-87
2022/07/21 02:11:15;;;;;;;24.63;15.10;;;19.00;99.90;;;;;;5155675;27;20066;-88
2022/07/21 02:13:41;;;;;;;24.60;15.50;;;18.90;99.90;;;;;;5136411;27;20038;-88
2022/07/21 02:16:08;;;;;;;34.45;15.98;;;18.90;99.90;;;;;;5154898;27;20129;-88
2022/07/21 02:18:34;;;;;;;25.00;14.20;;;19.00;99.90;;;;;;5154761;27;20486;-88
2022/07/21 02:21:00;;;;;;;27.73;15.35;;;18.90;99.90;;;;;;5155911;27;20092;-89
2022/07/21 02:23:26;;;;;;;59.17;19.80;;;18.90;99.90;;;;;;5134789;27;20082;-90
2022/07/21 02:25:52;;;;;;;25.20;14.25;;;18.90;99.90;;;;;;5135669;27;20092;-91
2022/07/21 02:28:20;;;;;;;21.75;15.23;;;18.90;99.90;;;;;;5136678;27;20047;-91
2022/07/21 02:30:46;;;;;;;42.45;19.92;;;18.90;99.90;;;;;;5119981;27;20478;-91
2022/07/21 02:33:12;;;;;;;30.98;15.38;;;18.90;99.90;;;;;;5155209;27;20050;-91
2022/07/21 02:35:38;;;;;;;33.75;16.35;;;18.90;99.90;;;;;;5116709;27;20035;-90
2022/07/21 02:38:04;;;;;;;30.73;15.57;;;18.90;99.90;;;;;;5099285;27;20534;-91
2022/07/21 02:40:31;;;;;;;35.00;18.10;;;18.90;99.90;;;;;;5136317;27;20042;-91
2022/07/21 02:42:56;;;;;;;23.02;15.07;;;18.90;99.90;;;;;;5120923;27;20034;-90
2022/07/21 02:45:23;;;;;;;33.88;18.45;;;18.90;99.90;;;;;;5154167;27;20391;-91
2022/07/21 02:47:49;;;;;;;43.90;19.35;;;18.90;99.90;;;;;;5136207;27;20125;-91
2022/07/21 02:50:16;;;;;;;26.25;14.65;;;18.90;99.90;;;;;;5137740;27;20094;-92
2022/07/21 02:52:42;;;;;;;37.65;18.50;;;18.90;99.90;;;;;;5154646;27;20038;-92
2022/07/21 02:55:09;;;;;;;24.00;14.02;;;18.90;99.90;;;;;;5156068;27;20462;-91
2022/07/21 02:57:35;;;;;;;65.40;23.73;;;18.90;99.90;;;;;;5154700;27;20099;-91
2022/07/21 03:00:01;;;;;;;29.83;17.90;;;18.90;99.90;;;;;;5154048;27;20046;-91
2022/07/21 03:02:26;;;;;;;23.30;15.70;;;18.90;99.90;;;;;;5154593;27;20096;-91
2022/07/21 03:04:52;;;;;;;21.33;14.40;;;18.90;99.90;;;;;;5155652;27;20512;-90
2022/07/21 03:07:18;;;;;;;19.95;13.85;;;18.90;99.90;;;;;;5135242;27;20095;-90
2022/07/21 03:09:44;;;;;;;19.05;14.65;;;18.90;99.90;;;;;;5155588;27;20117;-89
2022/07/21 03:12:09;;;;;;;18.35;14.02;;;18.90;99.90;;;;;;5134843;27;20481;-89
2022/07/21 03:14:35;;;;;;;19.80;14.80;;;18.90;99.90;;;;;;5137005;27;20082;-90
2022/07/21 03:17:02;;;;;;;24.73;14.20;;;19.00;99.90;;;;;;5138876;27;20107;-90
2022/07/21 03:19:28;;;;;;;17.83;14.20;;;19.00;99.90;;;;;;5124282;27;20055;-90
2022/07/21 03:21:53;;;;;;;20.45;13.93;;;18.90;99.90;;;;;;5141437;27;20043;-90
2022/07/21 03:24:19;;;;;;;19.17;14.88;;;19.00;99.90;;;;;;5158732;27;20039;-89
2022/07/21 03:26:45;;;;;;;22.65;15.32;;;19.00;99.90;;;;;;5158359;27;20079;-89
2022/07/21 03:29:11;;;;;;;25.38;16.17;;;19.00;99.90;;;;;;5159147;27;20038;-89
2022/07/21 03:31:37;;;;;;;54.20;21.95;;;19.00;99.90;;;;;;5158185;27;20380;-88
2022/07/21 03:34:02;;;;;;;26.83;15.63;;;19.00;99.90;;;;;;5139757;27;20046;-88
2022/07/21 03:36:29;;;;;;;27.45;17.75;;;18.90;99.90;;;;;;5158236;27;20038;-89
2022/07/21 03:38:55;;;;;;;27.77;18.23;;;19.00;99.90;;;;;;5159221;27;20050;-89
2022/07/21 03:41:20;;;;;;;23.65;16.90;;;18.90;99.90;;;;;;5157193;27;20053;-89
2022/07/21 03:43:46;;;;;;;23.88;16.15;;;18.90;99.90;;;;;;5159168;27;20045;-89
2022/07/21 03:46:12;;;;;;;40.67;20.80;;;18.90;99.90;;;;;;5139224;27;20423;-89
2022/07/21 03:48:39;;;;;;;27.40;17.50;;;18.90;99.90;;;;;;5158268;27;20394;-88
2022/07/21 03:51:05;;;;;;;29.33;19.95;;;19.00;99.90;;;;;;5139476;27;20557;-89
2022/07/21 03:53:31;;;;;;;25.88;19.90;;;18.90;99.90;;;;;;5159127;27;20126;-89
2022/07/21 03:55:57;;;;;;;23.17;17.17;;;18.90;99.90;;;;;;5156887;27;20157;-89
2022/07/21 03:58:22;;;;;;;28.95;18.10;;;19.00;99.90;;;;;;5158863;27;20188;-89
2022/07/21 04:00:48;;;;;;;23.08;17.20;;;18.90;99.90;;;;;;5157863;27;20051;-88
2022/07/21 04:03:14;;;;;;;22.75;17.35;;;19.00;99.90;;;;;;5157758;27;20150;-89
2022/07/21 04:05:42;;;;;;;22.98;19.80;;;19.00;99.90;;;;;;5138904;27;20085;-88
2022/07/21 04:08:09;;;;;;;24.20;18.05;;;19.00;99.90;;;;;;5140108;27;20049;-88
2022/07/21 04:10:37;;;;;;;32.25;21.80;;;19.00;99.90;;;;;;5156751;27;20058;-89
2022/07/21 04:13:06;;;;;;;24.65;19.67;;;19.00;99.90;;;;;;5158341;27;20497;-88
2022/07/21 04:15:32;;;;;;;27.42;21.20;;;19.00;99.90;;;;;;5156182;27;20099;-88
2022/07/21 04:17:58;;;;;;;26.55;20.15;;;19.00;99.90;;;;;;5158311;27;20043;-88
2022/07/21 04:20:24;;;;;;;22.27;19.02;;;19.00;99.90;;;;;;5155788;27;20080;-88
2022/07/21 04:22:50;;;;;;;23.00;20.17;;;19.00;99.90;;;;;;5138993;27;20452;-87
2022/07/21 04:25:17;;;;;;;25.73;19.35;;;19.00;99.90;;;;;;5156699;27;20054;-87
2022/07/21 04:27:44;;;;;;;24.42;19.85;;;19.00;99.90;;;;;;5157607;27;20046;-87
2022/07/21 04:30:13;;;;;;;19.90;17.77;;;19.00;99.90;;;;;;5156324;27;20043;-87
2022/07/21 04:32:39;;;;;;;26.60;18.92;;;18.90;99.90;;;;;;5156744;27;20042;-87
2022/07/21 04:35:07;;;;;;;20.08;17.33;;;18.90;99.90;;;;;;5122698;27;20045;-89
2022/07/21 04:37:33;;;;;;;29.67;18.70;;;18.90;99.90;;;;;;5153164;27;20110;-89
2022/07/21 04:40:00;;;;;;;25.05;19.48;;;18.90;99.90;;;;;;5118670;27;20039;-89
2022/07/21 04:42:25;;;;;;;21.63;17.45;;;18.80;99.90;;;;;;5141443;27;20041;-91
2022/07/21 04:44:51;;;;;;;25.80;18.58;;;18.90;99.90;;;;;;5148530;27;20125;-91
2022/07/21 04:47:17;;;;;;;24.73;17.08;;;18.80;99.90;;;;;;5160585;27;20095;-91
2022/07/21 04:49:43;;;;;;;29.40;20.60;;;18.80;99.90;;;;;;5158804;27;20390;-92
2022/07/21 04:52:09;;;;;;;107.60;28.98;;;18.80;99.90;;;;;;5136686;27;20095;-93
2022/07/21 04:54:35;;;;;;;22.83;18.65;;;18.80;99.90;;;;;;5139856;27;20050;-90
2022/07/21 04:57:02;;;;;;;26.13;18.45;;;18.80;99.90;;;;;;5138163;27;20043;-91
2022/07/21 04:59:29;;;;;;;43.30;22.00;;;18.70;99.90;;;;;;5137156;27;20043;-89
2022/07/21 05:01:56;;;;;;;25.70;17.83;;;18.70;99.90;;;;;;5157807;27;20047;-89
2022/07/21 05:04:21;;;;;;;22.08;18.08;;;18.70;99.90;;;;;;5156333;27;20473;-89
2022/07/21 05:06:47;;;;;;;45.38;21.63;;;18.70;99.90;;;;;;5157565;27;20067;-88
2022/07/21 05:09:14;;;;;;;175.35;32.38;;;18.70;99.90;;;;;;5139146;27;20516;-93
2022/07/21 05:11:40;;;;;;;83.13;26.05;;;18.70;99.90;;;;;;5157225;27;20042;-89
2022/07/21 05:14:05;;;;;;;39.08;21.27;;;18.60;99.90;;;;;;5157786;27;20043;-92
2022/07/21 05:16:31;;;;;;;37.53;23.27;;;18.60;99.90;;;;;;5156689;27;20497;-93
2022/07/21 05:18:57;;;;;;;37.95;22.00;;;18.50;99.90;;;;;;5157081;27;20030;-91
2022/07/21 05:21:23;;;;;;;59.13;24.88;;;18.50;99.90;;;;;;5138254;27;20501;-90
2022/07/21 05:23:49;;;;;;;30.38;19.85;;;18.50;99.90;;;;;;5138840;27;20516;-89
2022/07/21 05:26:14;;;;;;;35.03;20.88;;;18.50;99.90;;;;;;5155329;27;20440;-88
2022/07/21 05:28:40;;;;;;;25.75;19.10;;;18.50;99.90;;;;;;5157157;27;20038;-88
2022/07/21 05:31:07;;;;;;;26.52;18.98;;;18.50;99.90;;;;;;5155816;27;20049;-87
2022/07/21 05:33:33;;;;;;;144.07;31.98;;;18.50;99.90;;;;;;5156036;27;20104;-87
2022/07/21 05:35:59;;;;;;;23.65;18.67;;;18.50;99.90;;;;;;5151930;27;20035;-90
2022/07/21 05:38:25;;;;;;;24.05;18.23;;;18.60;99.90;;;;;;5143402;27;20047;-86
2022/07/21 05:40:51;;;;;;;76.65;29.13;;;18.60;99.90;;;;;;5152687;27;20098;-85
2022/07/21 05:43:16;;;;;;;22.35;18.15;;;18.60;99.90;;;;;;5123256;27;20055;-86
2022/07/21 05:45:42;;;;;;;21.92;19.13;;;18.60;99.90;;;;;;5136612;27;20439;-85
2022/07/21 05:48:08;;;;;;;71.70;28.17;;;18.60;99.90;;;;;;5148862;27;20043;-85
2022/07/21 05:50:34;;;;;;;29.63;21.30;;;18.70;99.90;;;;;;5137088;27;20049;-85
2022/07/21 05:53:00;;;;;;;31.98;21.38;;;18.70;99.90;;;;;;5156486;27;20413;-85
2022/07/21 05:55:26;;;;;;;28.40;20.52;;;18.70;99.90;;;;;;5147198;27;20039;-85
2022/07/21 05:57:51;;;;;;;32.00;22.90;;;18.70;99.90;;;;;;5143526;27;20042;-84
2022/07/21 06:00:17;;;;;;;40.90;23.45;;;18.80;99.90;;;;;;5137817;27;20076;-85
2022/07/21 06:02:46;;;;;;;22.45;19.45;;;18.80;99.90;;;;;;5154364;27;20050;-85
2022/07/21 06:05:13;;;;;;;25.20;20.25;;;18.80;99.90;;;;;;5156323;27;20039;-87
2022/07/21 06:07:39;;;;;;;34.75;23.38;;;18.80;99.90;;;;;;5152263;27;20469;-85
2022/07/21 06:10:06;;;;;;;31.70;20.83;;;18.90;99.90;;;;;;5134820;27;20043;-85
2022/07/21 06:12:32;;;;;;;29.80;23.73;;;18.90;99.90;;;;;;5120784;27;20499;-87
2022/07/21 06:14:58;;;;;;;31.73;23.65;;;19.00;99.90;;;;;;5156031;27;20497;-87
2022/07/21 06:17:24;;;;;;;33.30;25.17;;;19.00;99.90;;;;;;5154184;27;20047;-87
2022/07/21 06:19:50;;;;;;;27.52;23.58;;;19.00;99.90;;;;;;5156130;27;20038;-87
2022/07/21 06:22:16;;;;;;;31.27;24.95;;;19.00;99.90;;;;;;5135369;27;20516;-85
2022/07/21 06:24:42;;;;;;;30.98;24.23;;;19.00;99.90;;;;;;5137554;27;20039;-88
2022/07/21 06:27:07;;;;;;;33.03;24.35;;;19.00;99.90;;;;;;5135162;27;20491;-87
2022/07/21 06:29:34;;;;;;;30.20;23.92;;;19.10;99.90;;;;;;5153166;27;20042;-87
2022/07/21 06:32:00;;;;;;;30.70;23.55;;;19.10;99.90;;;;;;5152808;27;20072;-88
2022/07/21 06:34:26;;;;;;;36.92;25.77;;;19.10;99.90;;;;;;5107117;27;20052;-87
2022/07/21 06:36:51;;;;;;;29.20;24.67;;;19.10;99.90;;;;;;5121946;27;20123;-88
2022/07/21 06:39:17;;;;;;;31.02;24.98;;;19.20;99.90;;;;;;5154614;27;20041;-87
2022/07/21 06:41:43;;;;;;;30.23;23.70;;;19.20;99.90;;;;;;5136988;27;20486;-88
2022/07/21 06:44:09;;;;;;;31.13;24.85;;;19.20;99.90;;;;;;5153871;27;20114;-87
2022/07/21 06:46:35;;;;;;;32.08;22.95;;;19.30;99.90;;;;;;5135227;27;20453;-87
2022/07/21 06:49:01;;;;;;;29.23;24.58;;;19.30;99.90;;;;;;5151660;27;20042;-88
2022/07/21 06:51:28;;;;;;;30.60;24.75;;;19.40;99.90;;;;;;5133937;27;20035;-88
2022/07/21 06:53:54;;;;;;;31.27;24.77;;;19.40;99.90;;;;;;5118395;27;20100;-88
2022/07/21 06:56:19;;;;;;;30.45;23.75;;;19.40;99.90;;;;;;5155386;27;20035;-88
2022/07/21 06:58:45;;;;;;;30.65;24.77;;;19.40;99.90;;;;;;5153638;27;20046;-88
2022/07/21 07:01:11;;;;;;;27.80;24.63;;;19.40;99.90;;;;;;5155323;27;20043;-87
2022/07/21 07:03:37;;;;;;;28.70;25.33;;;19.50;99.90;;;;;;5154925;27;20086;-89
2022/07/21 07:06:04;;;;;;;35.97;26.75;;;19.60;99.90;;;;;;5153164;27;20046;-89
2022/07/21 07:08:31;;;;;;;30.45;25.42;;;19.60;99.90;;;;;;5154266;27;20049;-88
2022/07/21 07:10:57;;;;;;;31.30;25.73;;;19.60;99.90;;;;;;5155322;27;20042;-89
2022/07/21 07:13:23;;;;;;;27.58;24.38;;;19.60;99.90;;;;;;5153185;27;20042;-89
2022/07/21 07:15:49;;;;;;;34.67;25.60;;;19.60;99.90;;;;;;5154201;27;20053;-88
2022/07/21 07:18:15;;;;;;;29.73;25.30;;;19.60;99.90;;;;;;5153403;27;20046;-88
2022/07/21 07:20:41;;;;;;;34.40;27.67;;;19.60;99.90;;;;;;5153262;27;20489;-89
2022/07/21 07:23:07;;;;;;;33.95;25.85;;;19.50;99.90;;;;;;5153630;27;20046;-88
2022/07/21 07:25:33;;;;;;;34.28;26.73;;;19.40;99.90;;;;;;5153639;27;20504;-88
2022/07/21 07:28:00;;;;;;;27.20;24.20;;;19.40;99.90;;;;;;5153308;27;20151;-88
2022/07/21 07:30:26;;;;;;;72.97;33.28;;;19.40;99.90;;;;;;5154885;27;20046;-87
2022/07/21 07:32:52;;;;;;;31.50;24.35;;;19.30;99.90;;;;;;5152933;27;20527;-88
2022/07/21 07:35:18;;;;;;;26.10;23.17;;;19.20;99.90;;;;;;5154894;27;20043;-88
2022/07/21 07:37:45;;;;;;;27.88;23.98;;;19.20;99.90;;;;;;5153959;27;20049;-88
2022/07/21 07:40:14;;;;;;;28.63;24.75;;;19.20;99.90;;;;;;5153935;27;20504;-89
2022/07/21 07:42:40;;;;;;;29.95;25.60;;;19.30;99.90;;;;;;5153752;27;20497;-88
2022/07/21 07:45:07;;;;;;;26.25;23.42;;;19.20;99.90;;;;;;5152666;27;20043;-88
2022/07/21 07:47:34;;;;;;;28.20;23.55;;;19.20;99.90;;;;;;5137273;27;20870;-88
2022/07/21 07:50:00;;;;;;;28.33;23.92;;;19.30;99.90;;;;;;5151645;27;20509;-88
2022/07/21 07:52:28;;;;;;;71.55;31.83;;;19.30;99.90;;;;;;5152099;27;20505;-88
2022/07/21 07:54:53;;;;;;;175.70;42.95;;;19.30;99.90;;;;;;5154185;27;20054;-88
2022/07/21 07:57:19;;;;;;;26.35;22.40;;;19.20;99.90;;;;;;5153674;27;20046;-89
2022/07/21 07:59:45;;;;;;;31.73;25.25;;;19.20;99.90;;;;;;5154134;27;20039;-89
2022/07/21 08:02:10;;;;;;;29.05;24.80;;;19.20;99.90;;;;;;5153811;27;20047;-88
2022/07/21 08:04:37;;;;;;;28.13;24.10;;;19.30;99.90;;;;;;5156676;27;20034;-88
2022/07/21 08:07:03;;;;;;;37.38;26.00;;;19.30;99.90;;;;;;5152695;27;20475;-88
2022/07/21 08:09:29;;;;;;;36.25;27.60;;;19.30;99.90;;;;;;5155893;27;20043;-88
2022/07/21 08:11:55;;;;;;;34.03;26.63;;;19.30;99.90;;;;;;5157324;27;20390;-89
2022/07/21 08:14:21;;;;;;;29.45;26.20;;;19.30;99.90;;;;;;5136829;27;20091;-88
2022/07/21 08:16:47;;;;;;;30.40;26.00;;;19.30;99.90;;;;;;5155396;27;20054;-88
2022/07/21 08:19:13;;;;;;;30.92;27.00;;;19.40;99.90;;;;;;5158242;27;20055;-88
2022/07/21 08:21:39;;;;;;;34.25;28.38;;;19.40;99.90;;;;;;5145560;27;20030;-85
2022/07/21 08:24:05;;;;;;;35.83;27.17;;;19.40;99.90;;;;;;5125594;27;20125;-87
2022/07/21 08:26:31;;;;;;;48.00;32.00;;;19.40;99.90;;;;;;5135277;27;20047;-86
2022/07/21 08:28:58;;;;;;;44.20;32.17;;;19.50;99.90;;;;;;5118158;27;20519;-87
2022/07/21 08:31:24;;;;;;;37.65;30.45;;;19.60;99.90;;;;;;5137276;27;20075;-88
2022/07/21 08:33:51;;;;;;;40.00;32.47;;;19.60;99.90;;;;;;5137375;27;20447;-88
2022/07/21 08:36:17;;;;;;;45.00;34.00;;;19.60;99.90;;;;;;5136470;27;20039;-87
2022/07/21 08:38:43;;;;;;;45.45;32.15;;;19.70;99.90;;;;;;5137243;27;20054;-87
2022/07/21 08:41:09;;;;;;;40.15;32.08;;;19.70;99.90;;;;;;5119005;27;20043;-87
2022/07/21 08:43:36;;;;;;;48.85;36.88;;;19.80;99.90;;;;;;5118183;27;20043;-86
2022/07/21 08:46:02;;;;;;;57.97;40.65;;;19.80;99.90;;;;;;5137239;27;20039;-86
2022/07/21 08:48:29;;;;;;;57.03;40.17;;;19.80;99.90;;;;;;5137177;27;20479;-86
2022/07/21 08:50:56;;;;;;;44.83;38.03;;;19.90;99.90;;;;;;5136254;27;20035;-86
2022/07/21 08:53:23;;;;;;;48.30;37.35;;;19.90;99.90;;;;;;5136821;27;20050;-84
2022/07/21 08:55:49;;;;;;;49.53;38.97;;;19.90;99.90;;;;;;5137044;27;20121;-84
2022/07/21 08:58:15;;;;;;;46.25;37.70;;;19.90;99.90;;;;;;5135910;27;20135;-85
2022/07/21 09:00:48;;;;;;;52.58;41.08;;;19.80;99.90;;;;;;5136740;27;20599;-85
2022/07/21 09:03:20;;;;;;;49.58;40.38;;;19.80;99.90;;;;;;5137323;27;20076;-85
2022/07/21 09:06:07;;;;;;;85.85;45.08;;;19.80;99.90;;;;;;5136110;27;20039;-84
2022/07/21 09:08:37;;;;;;;51.00;38.60;;;19.80;99.90;;;;;;5126143;27;20058;-82
2022/07/21 09:11:14;;;;;;;45.38;38.67;;;19.80;99.90;;;;;;5135989;27;20046;-84
2022/07/21 09:13:41;;;;;;;56.50;42.53;;;19.80;99.90;;;;;;5136392;27;20078;-83
2022/07/21 09:16:07;;;;;;;52.88;41.88;;;19.80;99.90;;;;;;5136393;27;20051;-83
2022/07/21 09:18:33;;;;;;;49.50;42.20;;;19.80;99.90;;;;;;5135727;27;20043;-83
2022/07/21 09:21:00;;;;;;;50.28;42.72;;;19.70;99.90;;;;;;5136381;27;20393;-83
2022/07/21 09:23:26;;;;;;;50.75;39.45;;;19.80;99.90;;;;;;5136455;27;20398;-82
2022/07/21 09:25:58;;;;;;;67.15;45.42;;;19.80;99.90;;;;;;5117397;27;20039;-83
2022/07/21 09:28:28;;;;;;;51.38;40.97;;;19.80;99.90;;;;;;5142002;27;20100;-86
2022/07/21 09:30:56;;;;;;;52.92;40.55;;;19.80;99.90;;;;;;5136331;27;20050;-84
2022/07/21 09:33:36;;;;;;;45.35;39.35;;;19.70;99.90;;;;;;5121567;27;20486;-85
2022/07/21 09:36:04;;;;;;;56.22;42.42;;;19.70;99.90;;;;;;5136587;27;20424;-84
2022/07/21 09:38:32;;;;;;;66.75;44.25;;;19.70;99.90;;;;;;5131044;27;20039;-84
2022/07/21 09:41:05;;;;;;;70.03;47.30;;;19.70;99.90;;;;;;5156246;27;20046;-84
2022/07/21 09:43:34;;;;;;;54.08;43.47;;;19.70;99.90;;;;;;5154301;27;20085;-83
2022/07/21 09:46:03;;;;;;;54.15;42.97;;;19.70;99.90;;;;;;5135520;27;20097;-83
2022/07/21 09:48:34;;;;;;;61.60;45.85;;;19.70;99.90;;;;;;5147959;27;20172;-83
2022/07/21 09:51:21;;;;;;;56.17;43.97;;;19.70;99.90;;;;;;5138028;27;20043;-82
2022/07/21 09:54:07;;;;;;;60.55;44.95;;;19.80;99.90;;;;;;5154235;27;20538;-83
2022/07/21 09:56:39;;;;;;;93.13;52.08;;;19.80;99.90;;;;;;5156502;27;20046;-83
2022/07/21 09:59:07;;;;;;;56.08;43.33;;;19.80;99.90;;;;;;5137172;27;20126;-83
2022/07/21 10:01:35;;;;;;;56.08;44.20;;;19.80;99.90;;;;;;5155736;27;20058;-83
2022/07/21 10:04:01;;;;;;;52.70;41.92;;;19.90;99.90;;;;;;5155650;27;20039;-83
2022/07/21 10:06:30;;;;;;;63.72;47.88;;;20.00;99.90;;;;;;5149707;27;20126;-84
2022/07/21 10:08:57;;;;;;;45.47;37.78;;;20.00;99.90;;;;;;5154360;27;20042;-82
2022/07/21 10:11:24;;;;;;;50.05;38.35;;;20.00;99.90;;;;;;5148790;27;20066;-85
2022/07/21 10:13:51;;;;;;;48.65;40.17;;;20.10;99.90;;;;;;5136638;27;20057;-84
2022/07/21 10:16:17;;;;;;;50.03;38.58;;;20.10;99.90;;;;;;5154621;27;20417;-84
2022/07/21 10:19:15;;;;;;;50.95;39.25;;;20.10;99.90;;;;;;5156010;27;20123;-84
2022/07/21 10:21:46;;;;;;;47.05;36.70;;;20.20;99.90;;;;;;5126978;27;20050;-84
2022/07/21 10:24:12;;;;;;;57.42;40.85;;;20.20;99.90;;;;;;5137620;27;20033;-84
2022/07/21 10:27:04;;;;;;;51.35;34.53;;;20.20;99.90;;;;;;5154777;27;20061;-85
2022/07/21 10:29:48;;;;;;;36.65;32.05;;;20.20;99.90;;;;;;5134966;27;20047;-84
2022/07/21 10:32:15;;;;;;;42.78;32.30;;;20.30;99.90;;;;;;5154810;27;20034;-84
2022/07/21 10:34:42;;;;;;;42.10;30.67;;;20.20;99.90;;;;;;5148787;27;20035;-84
2022/07/21 10:37:09;;;;;;;42.65;30.33;;;20.10;99.90;;;;;;5134081;27;20489;-84
2022/07/21 10:39:35;;;;;;;29.17;24.48;;;20.20;99.90;;;;;;5139350;27;20122;-85
2022/07/21 10:42:16;;;;;;;26.65;23.80;;;20.10;99.90;;;;;;5116318;27;20051;-85
2022/07/21 10:44:44;;;;;;;24.90;21.25;;;20.20;99.90;;;;;;5147249;27;20135;-84
2022/07/21 10:47:10;;;;;;;38.63;25.13;;;20.10;99.90;;;;;;5134673;27;20539;-84
2022/07/21 10:49:59;;;;;;;27.83;22.65;;;20.10;99.90;;;;;;5150900;27;20051;-84
2022/07/21 10:52:45;;;;;;;29.50;22.95;;;20.10;99.90;;;;;;5155344;27;20043;-85
2022/07/21 10:55:10;;;;;;;24.83;21.42;;;20.10;99.90;;;;;;5153877;27;20112;-84
2022/07/21 10:57:38;;;;;;;27.65;22.33;;;20.10;99.90;;;;;;5140993;27;20057;-85
2022/07/21 11:00:17;;;;;;;25.27;22.65;;;20.10;99.90;;;;;;5152343;27;20179;-85
2022/07/21 11:02:44;;;;;;;30.23;23.48;;;20.10;99.90;;;;;;5149736;27;20182;-85
2022/07/21 11:05:09;;;;;;;26.02;23.25;;;20.10;99.90;;;;;;5149384;27;20045;-86
2022/07/21 11:08:12;;;;;;;28.48;22.40;;;20.20;99.90;;;;;;5149407;27;20047;-86
2022/07/21 11:10:44;;;;;;;22.52;19.58;;;20.20;99.90;;;;;;5124978;27;20537;-85
2022/07/21 11:13:11;;;;;;;23.60;19.92;;;20.30;99.90;;;;;;5134434;27;20086;-86
2022/07/21 11:16:03;;;;;;;23.55;20.10;;;20.30;99.90;;;;;;5143308;27;20045;-86
2022/07/21 11:18:31;;;;;;;22.75;18.23;;;20.40;99.90;;;;;;5150692;27;20086;-86
2022/07/21 11:21:16;;;;;;;23.27;18.52;;;20.40;99.90;;;;;;5145003;27;20046;-86
2022/07/21 11:23:48;;;;;;;22.85;18.95;;;20.50;99.90;;;;;;5134217;28;20501;-86
2022/07/21 11:26:23;;;;;;;21.63;19.42;;;20.50;99.90;;;;;;5146558;27;20095;-86
2022/07/21 11:29:06;;;;;;;24.95;18.67;;;20.60;99.90;;;;;;5154893;27;20122;-85
2022/07/21 11:31:44;;;;;;;19.65;16.85;;;20.60;99.90;;;;;;5152088;27;20038;-86
2022/07/21 11:34:10;;;;;;;23.73;17.60;;;20.60;99.90;;;;;;5154900;27;20046;-85
2022/07/21 11:36:35;;;;;;;20.17;17.02;;;20.70;99.90;;;;;;5134322;27;20047;-85
2022/07/21 11:39:07;;;;;;;20.15;17.55;;;20.70;99.90;;;;;;5157339;27;20039;-85
2022/07/21 11:41:37;;;;;;;18.05;16.27;;;20.80;99.90;;;;;;5158979;27;20049;-87
2022/07/21 11:44:05;;;;;;;17.73;15.93;;;20.80;99.90;;;;;;5158041;27;20046;-87
2022/07/21 11:46:51;;;;;;;16.30;14.73;;;20.90;99.90;;;;;;5139267;27;20039;-86
2022/07/21 11:49:18;;;;;;;18.35;14.90;;;20.90;99.90;;;;;;5141954;27;20042;-86
2022/07/21 11:51:50;;;;;;;17.77;15.52;;;20.90;99.90;;;;;;5139566;27;20046;-87
2022/07/21 11:54:24;;;;;;;18.85;15.18;;;21.10;99.90;;;;;;5157363;27;20417;-88
2022/07/21 11:56:51;;;;;;;16.75;15.00;;;20.90;99.90;;;;;;5157880;27;20030;-87
2022/07/21 11:59:17;;;;;;;16.65;15.05;;;21.00;99.90;;;;;;5151091;27;20039;-87
2022/07/21 12:01:54;;;;;;;16.42;14.73;;;21.00;99.90;;;;;;5118475;27;20470;-86
2022/07/21 12:04:28;;;;;;;15.60;14.02;;;21.10;99.90;;;;;;5119693;27;20047;-86
2022/07/21 12:06:54;;;;;;;16.65;14.88;;;21.10;99.90;;;;;;5156357;27;20073;-86
2022/07/21 12:09:20;;;;;;;15.23;12.73;;;21.20;99.90;;;;;;5158502;27;20099;-85
2022/07/21 12:11:47;;;;;;;14.55;13.05;;;21.20;99.90;;;;;;5141974;27;20126;-86
2022/07/21 12:14:13;;;;;;;15.95;14.20;;;21.10;99.90;;;;;;5136810;27;20486;-85
2022/07/21 12:16:50;;;;;;;13.93;12.57;;;21.10;99.90;;;;;;5153523;27;20050;-86
2022/07/21 12:19:17;;;;;;;13.63;12.15;;;21.10;99.90;;;;;;5158243;27;20054;-84
2022/07/21 12:21:51;;;;;;;16.58;14.38;;;21.10;99.90;;;;;;5156504;27;20042;-85
2022/07/21 12:24:18;;;;;;;18.23;16.38;;;21.10;99.90;;;;;;5158469;27;20110;-85
2022/07/21 12:26:45;;;;;;;16.25;14.65;;;21.10;99.90;;;;;;5145191;27;20031;-84
2022/07/21 12:29:24;;;;;;;15.27;13.75;;;21.10;99.90;;;;;;5156870;27;20130;-85
2022/07/21 12:31:50;;;;;;;16.38;14.15;;;21.00;99.90;;;;;;5157224;27;20039;-86
2022/07/21 12:34:18;;;;;;;7.88;5.93;;;20.90;99.90;;;;;;5137955;27;20058;-85